Terminal Aerodrome Forecast
Issued by NWS

Home | Current Version | Previous Version | Text Only | Print | Product List | Glossary On
Versions: 1 2 3 4 5 6 7 8 9 10 11 12 13 14 15 16 17 18 19
000
FTUS46 KPDT 231129
TAFBDN
TAF
KBDN 231129Z 2312/2412 22008G15KT P6SM VCSH SCT050 BKN070
     FM231600 21008G15KT P6SM -SHRA BKN040 OVC060
     FM232300 23015G25KT P6SM VCSH SCT050 BKN080
     FM240600 27010G20KT P6SM BKN060 OVC080=

USA.gov is the U.S. government's official web portal to all federal, state and local government web resources and services.